Time;durP1;ratioP1;P1;durP2;ratioP2;P2;SDS_P1;SDS_P2;PMS_P1;PMS_P2;Temp;Humidity;BMP_temperature;BMP_pressure;BME280_temperature;BME280_humidity;BME280_pressure;Samples;Min_cycle;Max_cycle;Signal;HPM_P1;HPM_P2
2021/12/30 00:00:28;;;;;;;31.40;12.75;;;;;;;-11.15;62.21;99377.19;5074455;28;20043;-54
2021/12/30 00:02:54;;;;;;;28.58;11.52;;;;;;;-11.18;62.50;99377.38;5074687;28;20421;-57
2021/12/30 00:05:19;;;;;;;33.05;12.93;;;;;;;-11.15;62.17;99373.81;5074578;28;20040;-56
2021/12/30 00:07:45;;;;;;;28.85;12.48;;;;;;;-11.17;62.56;99373.94;5074550;28;20446;-56
2021/12/30 00:10:11;;;;;;;31.10;12.10;;;;;;;-11.19;62.00;99370.63;5074190;28;20044;-57
2021/12/30 00:12:38;;;;;;;33.30;13.07;;;;;;;-11.22;62.69;99378.53;5080220;28;20032;-57
2021/12/30 00:15:07;;;;;;;31.17;12.10;;;;;;;-11.26;61.92;99375.34;5094547;28;20105;-58
2021/12/30 00:17:34;;;;;;;31.08;14.23;;;;;;;-11.19;62.76;99372.38;5088608;28;20048;-56
2021/12/30 00:20:01;;;;;;;31.48;12.77;;;;;;;-11.17;62.69;99373.13;5074198;28;20037;-57
2021/12/30 00:22:28;;;;;;;28.40;12.10;;;;;;;-11.13;62.34;99369.44;5073820;28;20048;-55
2021/12/30 00:24:54;;;;;;;26.35;11.60;;;;;;;-11.18;62.19;99374.00;5073948;28;20045;-57
2021/12/30 00:27:19;;;;;;;32.42;14.35;;;;;;;-11.24;62.95;99359.88;5073461;28;20044;-56
2021/12/30 00:29:45;;;;;;;26.25;11.35;;;;;;;-11.28;62.44;99358.44;5074110;28;20037;-58
2021/12/30 00:32:11;;;;;;;38.78;14.57;;;;;;;-11.27;62.97;99358.34;5072582;28;20043;-56
2021/12/30 00:34:37;;;;;;;22.25;10.65;;;;;;;-11.19;62.55;99362.16;5073600;28;20445;-56
2021/12/30 00:37:03;;;;;;;26.70;11.90;;;;;;;-11.11;62.27;99370.16;5072482;28;20052;-57
2021/12/30 00:39:29;;;;;;;33.03;13.07;;;;;;;-11.04;62.40;99371.38;5073826;28;20127;-57
2021/12/30 00:41:54;;;;;;;32.25;13.77;;;;;;;-10.97;62.94;99372.59;5073987;28;20047;-56
2021/12/30 00:44:20;;;;;;;31.98;13.00;;;;;;;-10.80;62.24;99374.88;5073744;28;20032;-57
2021/12/30 00:46:46;;;;;;;37.13;12.88;;;;;;;-10.70;61.88;99369.97;5083139;28;20059;-56
2021/12/30 00:49:13;;;;;;;37.17;14.55;;;;;;;-10.65;61.50;99361.97;5082756;28;20082;-59
2021/12/30 00:51:40;;;;;;;30.58;14.00;;;;;;;-10.62;61.63;99360.00;5073914;28;20167;-56
2021/12/30 00:54:06;;;;;;;33.60;12.80;;;;;;;-10.64;61.45;99363.63;5072593;28;20039;-57
2021/12/30 00:56:31;;;;;;;27.45;11.95;;;;;;;-10.64;61.53;99361.88;5073609;28;20036;-52
2021/12/30 00:58:57;;;;;;;47.40;14.20;;;;;;;-10.67;61.66;99358.72;5072092;28;20040;-57
2021/12/30 01:01:24;;;;;;;32.70;13.38;;;;;;;-10.64;61.39;99359.31;5073873;28;20047;-56
2021/12/30 01:03:51;;;;;;;33.55;12.43;;;;;;;-10.70;61.63;99364.03;5073686;28;20127;-57
2021/12/30 01:06:17;;;;;;;32.83;14.15;;;;;;;-10.77;61.53;99363.59;5073633;28;20094;-55
2021/12/30 01:08:43;;;;;;;31.88;13.00;;;;;;;-10.77;61.55;99363.59;5055695;28;20139;-54
2021/12/30 01:11:11;;;;;;;29.35;13.00;;;;;;;-10.86;62.15;99361.66;5073307;28;20571;-56
2021/12/30 01:13:41;;;;;;;31.88;13.70;;;;;;;-10.83;62.27;99356.34;5072357;28;20076;-57
2021/12/30 01:16:16;;;;;;;36.58;14.02;;;;;;;-10.72;62.00;99359.00;5074224;28;20040;-56
2021/12/30 01:19:21;;;;;;;28.58;13.25;;;;;;;-10.70;62.38;99351.22;5076538;28;20048;-56
2021/12/30 01:21:33;;;;;;;35.80;12.35;;;;;;;-10.61;61.98;99343.72;5071665;28;20048;-56
2021/12/30 01:24:00;;;;;;;32.95;12.25;;;;;;;-10.70;61.71;99353.78;5071890;28;20032;-57
2021/12/30 01:26:26;;;;;;;33.97;13.88;;;;;;;-10.78;62.43;99350.00;5087525;28;20032;-57
2021/12/30 01:28:52;;;;;;;29.75;11.93;;;;;;;-10.69;62.17;99347.75;5093329;28;20146;-56
2021/12/30 01:31:19;;;;;;;38.92;13.63;;;;;;;-10.61;62.21;99353.16;5073030;28;20040;-56
2021/12/30 01:33:47;;;;;;;27.83;13.23;;;;;;;-10.48;61.92;99353.16;5071747;28;20087;-55
2021/12/30 01:36:13;;;;;;;27.15;12.05;;;;;;;-10.43;62.37;99353.66;5072808;28;20040;-57
2021/12/30 01:38:39;;;;;;;31.63;12.98;;;;;;;-10.30;61.03;99352.69;5073419;28;20052;-57
2021/12/30 01:41:08;;;;;;;29.38;13.60;;;;;;;-10.39;61.37;99344.81;5071353;28;20045;-55
2021/12/30 01:43:35;;;;;;;32.85;13.05;;;;;;;-10.56;62.07;99335.72;5073280;28;20059;-57
2021/12/30 01:46:02;;;;;;;33.95;13.80;;;;;;;-10.49;62.05;99331.03;5086256;28;20131;-55
2021/12/30 01:48:28;;;;;;;35.05;12.60;;;;;;;-10.44;61.85;99329.78;5093415;28;20134;-56
2021/12/30 01:50:54;;;;;;;37.20;13.05;;;;;;;-10.42;61.51;99332.22;5074573;28;20139;-58
2021/12/30 01:53:19;;;;;;;31.00;12.90;;;;;;;-10.41;61.60;99336.41;5073140;28;20041;-55
2021/12/30 01:55:46;;;;;;;43.72;15.93;;;;;;;-10.39;61.65;99337.13;5075779;28;20044;-57
2021/12/30 01:58:13;;;;;;;31.25;13.55;;;;;;;-10.43;62.00;99336.53;5093180;28;20075;-57
2021/12/30 02:00:41;;;;;;;33.97;12.60;;;;;;;-10.43;61.82;99331.41;5077899;28;20040;-56
2021/12/30 02:03:09;;;;;;;36.55;14.15;;;;;;;-10.47;61.77;99324.88;5072255;28;20572;-56
2021/12/30 02:05:37;;;;;;;30.88;13.93;;;;;;;-10.49;62.20;99320.78;5072811;28;20131;-56
2021/12/30 02:08:08;;;;;;;38.72;13.95;;;;;;;-10.46;62.24;99318.00;5073965;28;20151;-56
2021/12/30 02:10:34;;;;;;;26.83;13.57;;;;;;;-10.41;62.57;99318.47;5078273;28;20049;-55
2021/12/30 02:13:01;;;;;;;37.95;14.30;;;;;;;-10.31;62.46;99316.94;5070795;28;20044;-57
2021/12/30 02:15:27;;;;;;;39.28;14.13;;;;;;;-10.20;61.98;99321.28;5071114;28;20036;-57
2021/12/30 02:17:54;;;;;;;31.35;12.30;;;;;;;-10.12;62.20;99316.41;5070981;28;20391;-54
2021/12/30 02:20:45;;;;;;;29.52;12.23;;;;;;;-10.03;62.18;99322.66;5071739;28;20071;-55
2021/12/30 02:23:13;;;;;;;36.22;13.77;;;;;;;-9.97;61.77;99325.63;5072559;28;20428;-55
2021/12/30 02:25:39;;;;;;;33.13;13.50;;;;;;;-9.96;61.91;99322.13;5070943;28;20127;-56
2021/12/30 02:28:13;;;;;;;34.45;13.18;;;;;;;-10.01;61.85;99324.19;5070851;28;20044;-58
2021/12/30 02:30:41;;;;;;;29.17;12.68;;;;;;;-9.97;62.01;99314.53;5072322;28;20040;-57
2021/12/30 02:33:07;;;;;;;30.63;12.63;;;;;;;-10.09;62.51;99313.63;5073067;28;20131;-55
2021/12/30 02:35:33;;;;;;;33.05;13.13;;;;;;;-10.13;62.36;99322.50;5081911;28;20518;-56
2021/12/30 02:38:00;;;;;;;34.55;14.00;;;;;;;-10.07;62.92;99317.75;5091789;28;20044;-54
2021/12/30 02:40:32;;;;;;;31.63;13.18;;;;;;;-10.01;62.21;99319.06;5078889;28;20040;-55
2021/12/30 02:42:59;;;;;;;32.42;11.95;;;;;;;-10.06;62.24;99323.69;5071992;28;20139;-56
2021/12/30 02:45:24;;;;;;;30.88;12.95;;;;;;;-10.05;62.23;99320.22;5079133;28;20048;-54
2021/12/30 02:47:50;;;;;;;31.30;14.10;;;;;;;-10.04;62.91;99321.84;5071617;28;20045;-56
2021/12/30 02:50:16;;;;;;;31.10;13.60;;;;;;;-10.01;62.69;99302.84;5071321;28;20067;-56
2021/12/30 02:52:42;;;;;;;35.40;12.70;;;;;;;-9.95;62.54;99316.06;5070384;28;20063;-56
2021/12/30 02:55:08;;;;;;;30.23;14.05;;;;;;;-9.89;62.75;99315.63;5072343;28;20517;-55
2021/12/30 02:57:34;;;;;;;37.97;14.75;;;;;;;-9.80;62.65;99313.31;5071804;28;20437;-56
2021/12/30 03:00:00;;;;;;;38.67;14.45;;;;;;;-9.64;62.64;99317.25;5071450;28;20041;-58
2021/12/30 03:02:26;;;;;;;42.35;15.00;;;;;;;-9.66;62.54;99308.84;5071521;28;20052;-55
2021/12/30 03:04:51;;;;;;;41.88;14.82;;;;;;;-9.65;62.85;99301.97;5083181;28;20508;-56
2021/12/30 03:07:18;;;;;;;33.45;13.50;;;;;;;-9.63;62.23;99295.78;5052329;28;20106;-57
2021/12/30 03:09:47;;;;;;;38.40;12.77;;;;;;;-9.70;62.60;99294.63;5071337;28;20341;-58
2021/12/30 03:12:13;;;;;;;30.20;13.53;;;;;;;-9.70;63.05;99296.38;5070184;28;20049;-55
2021/12/30 03:14:43;;;;;;;31.95;12.82;;;;;;;-9.79;63.05;99292.72;5076484;28;20032;-56
2021/12/30 03:17:09;;;;;;;29.27;13.50;;;;;;;-9.88;63.90;99296.75;5076511;28;20528;-57
2021/12/30 03:19:35;;;;;;;34.75;14.00;;;;;;;-9.76;63.98;99292.50;5085442;28;20045;-56
2021/12/30 03:22:01;;;;;;;27.70;12.02;;;;;;;-9.75;63.18;99291.56;5072178;28;20516;-56
2021/12/30 03:24:27;;;;;;;36.95;14.80;;;;;;;-9.68;63.36;99287.59;5085275;28;20158;-56
2021/12/30 03:26:53;;;;;;;30.88;13.77;;;;;;;-9.76;64.29;99291.66;5071383;28;20123;-55
2021/12/30 03:29:19;;;;;;;38.50;14.20;;;;;;;-9.70;63.90;99294.63;5069817;28;20068;-57
2021/12/30 03:31:44;;;;;;;29.05;13.32;;;;;;;-9.60;63.49;99300.69;5069883;28;20114;-58
2021/12/30 03:34:10;;;;;;;37.60;14.75;;;;;;;-9.61;63.73;99298.25;5078635;28;20532;-56
2021/12/30 03:36:37;;;;;;;36.63;13.43;;;;;;;-9.63;63.20;99307.81;5070881;28;20494;-57
2021/12/30 03:39:03;;;;;;;31.60;13.77;;;;;;;-9.75;63.77;99306.13;5070786;28;20049;-56
2021/12/30 03:41:29;;;;;;;35.65;15.18;;;;;;;-9.80;64.37;99297.94;5069872;28;20045;-56
2021/12/30 03:43:59;;;;;;;32.85;14.32;;;;;;;-9.73;64.63;99291.47;5090657;28;20119;-58
2021/12/30 03:46:25;;;;;;;30.77;13.35;;;;;;;-9.72;64.37;99296.47;5070890;28;20059;-57
2021/12/30 03:48:51;;;;;;;29.48;11.55;;;;;;;-9.84;64.69;99295.59;5070937;28;20044;-56
2021/12/30 03:51:22;;;;;;;30.80;13.55;;;;;;;-9.74;65.02;99297.50;5069385;28;20426;-54
2021/12/30 03:53:51;;;;;;;32.75;12.52;;;;;;;-9.70;64.53;99294.63;5084209;28;20047;-54
2021/12/30 03:56:20;;;;;;;38.80;14.30;;;;;;;-9.62;64.93;99278.66;5070794;28;20545;-57
2021/12/30 03:58:47;;;;;;;32.05;13.48;;;;;;;-9.54;64.21;99289.19;5071483;28;20123;-58
2021/12/30 04:01:15;;;;;;;33.15;13.80;;;;;;;-9.42;64.87;99285.72;5072635;28;20040;-57
2021/12/30 04:03:42;;;;;;;26.83;12.98;;;;;;;-9.36;64.00;99281.88;5091554;28;20036;-57
2021/12/30 04:06:08;;;;;;;29.52;13.95;;;;;;;-9.26;63.83;99282.84;5072312;28;20043;-56
2021/12/30 04:08:34;;;;;;;34.55;14.57;;;;;;;-9.27;63.87;99270.91;5071222;28;20045;-56
2021/12/30 04:11:00;;;;;;;30.40;13.77;;;;;;;-9.40;63.98;99265.88;5070847;28;20044;-55
2021/12/30 04:13:26;;;;;;;31.65;13.88;;;;;;;-9.38;64.59;99268.34;5083353;28;20058;-58
2021/12/30 04:15:54;;;;;;;35.08;14.50;;;;;;;-9.28;64.47;99268.47;5074622;28;20052;-57
2021/12/30 04:18:20;;;;;;;37.97;14.30;;;;;;;-9.16;64.63;99265.00;5087005;28;20047;-58
2021/12/30 04:20:46;;;;;;;32.20;13.32;;;;;;;-9.17;63.51;99265.94;5081462;28;20044;-55
2021/12/30 04:23:13;;;;;;;32.72;15.13;;;;;;;-9.17;64.15;99269.31;5074252;28;20519;-57
2021/12/30 04:25:39;;;;;;;34.70;15.15;;;;;;;-9.17;63.91;99266.75;5074085;28;20079;-56
2021/12/30 04:28:05;;;;;;;35.55;15.25;;;;;;;-9.13;64.64;99267.34;5074358;28;20040;-57
2021/12/30 04:30:31;;;;;;;34.83;15.45;;;;;;;-9.04;63.39;99265.81;5073926;28;20135;-57
2021/12/30 04:32:58;;;;;;;37.80;15.55;;;;;;;-9.01;64.64;99270.72;5086073;28;20051;-55
2021/12/30 04:35:24;;;;;;;42.25;15.70;;;;;;;-9.03;64.64;99268.28;5088565;28;20048;-56
2021/12/30 04:37:50;;;;;;;41.63;15.88;;;;;;;-8.95;64.03;99267.69;5090558;28;20048;-56
2021/12/30 04:40:16;;;;;;;40.35;16.02;;;;;;;-8.84;63.60;99270.28;5092044;28;20241;-57
2021/12/30 04:42:43;;;;;;;43.72;15.45;;;;;;;-8.83;63.56;99268.50;5093157;28;20050;-57
2021/12/30 04:45:10;;;;;;;35.95;15.70;;;;;;;-8.79;63.77;99270.75;5091797;28;20044;-56
2021/12/30 04:47:38;;;;;;;32.45;14.95;;;;;;;-8.75;63.30;99269.56;5072627;28;20399;-57
2021/12/30 04:50:06;;;;;;;38.17;16.58;;;;;;;-8.69;63.36;99281.94;5073714;28;20051;-57
2021/12/30 04:52:32;;;;;;;41.58;17.30;;;;;;;-8.62;64.43;99291.75;5072651;28;20049;-56
2021/12/30 04:54:58;;;;;;;42.35;16.50;;;;;;;-8.57;64.43;99289.66;5073649;28;20037;-59
2021/12/30 04:57:24;;;;;;;37.95;15.63;;;;;;;-8.62;63.85;99287.41;5073793;28;20056;-56
2021/12/30 04:59:50;;;;;;;34.88;14.10;;;;;;;-8.65;64.11;99284.28;5073677;28;20119;-58
2021/12/30 05:02:16;;;;;;;46.33;17.90;;;;;;;-8.72;64.08;99278.78;5073160;28;20051;-58
2021/12/30 05:04:42;;;;;;;49.05;19.77;;;;;;;-8.66;65.00;99280.09;5072404;28;20037;-58
2021/12/30 05:07:08;;;;;;;50.10;20.02;;;;;;;-8.78;64.67;99280.06;5073077;28;20465;-57
2021/12/30 05:09:34;;;;;;;49.75;20.95;;;;;;;-8.67;64.84;99281.03;5072043;28;20430;-58
2021/12/30 05:12:00;;;;;;;50.33;20.63;;;;;;;-8.65;64.19;99277.38;5071600;28;20037;-57
2021/12/30 05:14:26;;;;;;;49.92;20.42;;;;;;;-8.61;64.26;99268.50;5073063;28;20072;-57
2021/12/30 05:16:52;;;;;;;43.00;18.92;;;;;;;-8.58;65.48;99268.28;5076583;28;20431;-56
2021/12/30 05:19:18;;;;;;;46.92;19.38;;;;;;;-8.50;65.39;99277.94;5093653;28;20138;-56
2021/12/30 05:21:45;;;;;;;48.47;20.17;;;;;;;-8.55;64.93;99270.63;5076478;28;20066;-59
2021/12/30 05:24:11;;;;;;;47.10;19.98;;;;;;;-8.60;65.02;99270.13;5079139;28;20162;-59
2021/12/30 05:26:37;;;;;;;41.40;17.67;;;;;;;-8.56;65.14;99260.44;5078649;28;20547;-56
2021/12/30 05:29:03;;;;;;;40.45;16.73;;;;;;;-8.52;64.70;99257.53;5072708;28;20064;-58
2021/12/30 05:31:29;;;;;;;46.10;17.65;;;;;;;-8.59;65.72;99251.19;5070604;28;20044;-55
2021/12/30 05:33:55;;;;;;;36.80;16.77;;;;;;;-8.60;65.84;99251.34;5072724;28;20048;-56
2021/12/30 05:36:21;;;;;;;50.90;21.10;;;;;;;-8.70;65.44;99264.09;5079744;28;20505;-57
2021/12/30 05:38:47;;;;;;;41.05;17.10;;;;;;;-8.69;65.71;99263.94;5071471;28;20048;-58
2021/12/30 05:41:13;;;;;;;39.03;17.02;;;;;;;-8.63;65.67;99264.44;5072417;28;20151;-58
2021/12/30 05:43:39;;;;;;;42.28;18.40;;;;;;;-8.58;66.10;99272.59;5071559;28;20036;-57
2021/12/30 05:46:05;;;;;;;43.95;18.05;;;;;;;-8.58;66.12;99267.47;5071186;28;20119;-56
2021/12/30 05:48:31;;;;;;;45.47;17.13;;;;;;;-8.70;66.48;99267.47;5072963;28;20075;-56
2021/12/30 05:51:00;;;;;;;41.35;16.77;;;;;;;-8.71;66.77;99265.00;5075814;28;20505;-59
2021/12/30 05:53:30;;;;;;;33.22;16.45;;;;;;;-8.63;66.89;99274.69;5076770;28;20051;-55
2021/12/30 05:55:56;;;;;;;38.22;17.75;;;;;;;-8.46;66.00;99277.59;5072229;28;20055;-57
2021/12/30 05:58:22;;;;;;;41.63;17.27;;;;;;;-8.47;66.55;99275.13;5072658;28;20087;-55
2021/12/30 06:00:49;;;;;;;38.50;17.77;;;;;;;-8.49;66.28;99266.75;5087657;28;20067;-56
2021/12/30 06:03:18;;;;;;;49.67;19.77;;;;;;;-8.41;66.63;99268.72;5067485;28;20040;-59
2021/12/30 06:05:46;;;;;;;34.78;15.88;;;;;;;-8.36;66.25;99267.38;5054030;28;20044;-58
2021/12/30 06:08:12;;;;;;;41.22;16.35;;;;;;;-8.30;66.11;99260.94;5072034;28;20052;-55
2021/12/30 06:10:39;;;;;;;35.03;15.82;;;;;;;-8.37;65.51;99273.47;5070159;28;20048;-56
2021/12/30 06:13:05;;;;;;;43.55;17.35;;;;;;;-8.38;66.53;99268.47;5083165;28;20059;-55
2021/12/30 06:15:31;;;;;;;46.75;19.17;;;;;;;-8.36;66.94;99269.97;5092105;28;20044;-58
2021/12/30 06:17:57;;;;;;;47.03;18.33;;;;;;;-8.31;66.20;99260.13;5082202;28;20406;-60
2021/12/30 06:20:23;;;;;;;39.10;15.45;;;;;;;-8.27;66.10;99258.94;5070344;28;20491;-59
2021/12/30 06:22:49;;;;;;;37.42;16.88;;;;;;;-8.23;65.58;99262.94;5070964;28;20041;-59
2021/12/30 06:25:15;;;;;;;46.78;19.15;;;;;;;-8.12;66.43;99271.53;5071498;28;20460;-59
2021/12/30 06:27:41;;;;;;;47.92;17.83;;;;;;;-8.08;66.30;99272.94;5071169;28;20557;-56
2021/12/30 06:30:08;;;;;;;49.33;20.92;;;;;;;-8.06;65.15;99273.63;5071266;28;20081;-59
2021/12/30 06:32:34;;;;;;;48.85;19.33;;;;;;;-8.12;65.93;99279.25;5084840;28;20043;-59
2021/12/30 06:35:00;;;;;;;51.47;19.80;;;;;;;-8.09;65.38;99287.56;5078620;28;20056;-59
2021/12/30 06:37:26;;;;;;;37.28;18.40;;;;;;;-8.12;66.52;99286.97;5080268;28;20044;-57
2021/12/30 06:39:53;;;;;;;43.92;19.17;;;;;;;-8.11;65.93;99289.44;5072188;28;20086;-58
2021/12/30 06:42:20;;;;;;;42.65;18.83;;;;;;;-8.08;65.48;99289.19;5087671;28;20478;-55
2021/12/30 06:44:46;;;;;;;44.67;19.00;;;;;;;-8.03;65.92;99284.50;5076384;28;20040;-61
2021/12/30 06:47:11;;;;;;;49.58;20.30;;;;;;;-7.98;66.74;99286.69;5088488;28;20059;-59
2021/12/30 06:49:38;;;;;;;48.72;20.35;;;;;;;-7.85;66.59;99289.13;5071426;28;20051;-60
2021/12/30 06:52:06;;;;;;;51.10;22.33;;;;;;;-7.84;65.40;99290.75;5069680;28;20044;-60
2021/12/30 06:54:32;;;;;;;52.45;22.35;;;;;;;-7.73;65.57;99295.03;5071076;28;20037;-61
2021/12/30 06:57:00;;;;;;;55.53;25.17;;;;;;;-7.70;65.33;99292.25;5071141;28;20056;-58
2021/12/30 06:59:27;;;;;;;61.38;25.08;;;;;;;-7.70;65.28;99289.66;5054520;28;20032;-61
2021/12/30 07:01:56;;;;;;;60.67;21.55;;;;;;;-7.72;66.02;99287.19;5079786;28;20044;-58
2021/12/30 07:04:22;;;;;;;63.17;24.38;;;;;;;-7.74;65.93;99281.34;5050677;28;20076;-57
2021/12/30 07:06:48;;;;;;;55.65;22.42;;;;;;;-7.65;65.51;99295.25;5061137;28;20118;-59
2021/12/30 07:09:14;;;;;;;47.10;18.05;;;;;;;-7.51;64.65;99284.66;5066972;28;20040;-60
2021/12/30 07:11:40;;;;;;;48.17;20.08;;;;;;;-7.46;64.43;99274.81;5065923;28;20112;-60
2021/12/30 07:14:06;;;;;;;51.05;21.35;;;;;;;-7.44;64.57;99280.66;5066617;28;20036;-59
2021/12/30 07:16:32;;;;;;;51.30;21.55;;;;;;;-7.32;64.62;99287.38;5066347;28;20052;-60
2021/12/30 07:18:57;;;;;;;58.60;22.77;;;;;;;-7.24;65.27;99288.47;5073653;28;20388;-60
2021/12/30 07:21:23;;;;;;;51.05;22.17;;;;;;;-7.25;64.04;99297.97;5086866;28;20306;-59
2021/12/30 07:23:49;;;;;;;49.83;21.73;;;;;;;-7.16;64.43;99301.56;5083284;28;20055;-59
2021/12/30 07:26:15;;;;;;;48.47;21.60;;;;;;;-7.10;65.11;99298.47;5088246;28;20047;-56
2021/12/30 07:28:41;;;;;;;46.22;20.25;;;;;;;-7.06;64.97;99301.59;5075451;28;20129;-59
2021/12/30 07:31:07;;;;;;;52.20;21.92;;;;;;;-6.89;64.78;99295.88;5069641;28;20033;-58
2021/12/30 07:33:33;;;;;;;45.47;19.75;;;;;;;-6.76;65.01;99296.50;5069400;28;20063;-60
2021/12/30 07:35:59;;;;;;;49.05;18.95;;;;;;;-6.62;64.05;99300.47;5069067;28;20140;-59
2021/12/30 07:38:25;;;;;;;50.20;19.95;;;;;;;-6.61;63.58;99302.13;5067658;28;20131;-61
2021/12/30 07:40:51;;;;;;;49.83;18.67;;;;;;;-6.64;63.37;99294.63;5071421;28;20040;-60
2021/12/30 07:43:17;;;;;;;41.33;19.40;;;;;;;-6.45;64.04;99299.84;5078304;28;20044;-62
2021/12/30 07:45:43;;;;;;;44.83;20.00;;;;;;;-6.73;63.54;99303.97;5067905;28;20055;-64
2021/12/30 07:48:08;;;;;;;36.30;16.92;;;;;;;-6.59;63.06;99299.41;5048220;28;20063;-58
2021/12/30 07:50:34;;;;;;;45.10;19.42;;;;;;;-6.39;63.81;99303.66;5082426;28;20059;-57
2021/12/30 07:53:00;;;;;;;49.95;19.58;;;;;;;-6.22;63.86;99308.22;5082743;28;20059;-57
2021/12/30 07:55:26;;;;;;;37.70;17.00;;;;;;;-6.04;63.17;99305.78;5071949;28;20032;-57
2021/12/30 07:57:55;;;;;;;40.42;16.00;;;;;;;-5.83;62.10;99305.66;5071919;28;20036;-55
2021/12/30 08:00:21;;;;;;;38.70;16.73;;;;;;;-5.93;62.04;99299.72;5068540;28;20041;-58
2021/12/30 08:02:47;;;;;;;36.88;16.83;;;;;;;-5.96;62.58;99300.78;5073208;28;20367;-58
2021/12/30 08:05:15;;;;;;;29.48;14.40;;;;;;;-6.14;62.74;99302.41;5070882;28;20044;-56
2021/12/30 08:07:45;;;;;;;36.65;16.60;;;;;;;-6.23;63.67;99301.44;5084721;28;20125;-59
2021/12/30 08:10:14;;;;;;;38.58;16.73;;;;;;;-6.26;63.93;99303.47;5070343;28;20040;-57
2021/12/30 08:12:42;;;;;;;33.15;15.60;;;;;;;-6.14;64.43;99296.44;5070188;28;20034;-57
2021/12/30 08:15:09;;;;;;;37.05;16.05;;;;;;;-5.99;63.93;99301.06;5085448;28;20409;-55
2021/12/30 08:17:35;;;;;;;41.67;15.70;;;;;;;-5.95;63.44;99312.75;5055303;28;20514;-57
2021/12/30 08:20:03;;;;;;;33.40;16.10;;;;;;;-6.00;63.51;99306.34;5070695;28;20036;-57
2021/12/30 08:23:04;;;;;;;39.42;15.07;;;;;;;-6.02;63.05;99308.25;5066959;28;20449;-58
2021/12/30 08:25:31;;;;;;;37.35;14.98;;;;;;;-6.18;64.18;99303.59;5065198;28;20163;-58
2021/12/30 08:27:57;;;;;;;30.00;14.00;;;;;;;-6.00;64.37;99296.84;5070919;28;20127;-56
2021/12/30 08:30:23;;;;;;;36.42;15.05;;;;;;;-5.75;63.68;99300.66;5070914;28;20032;-54
2021/12/30 08:32:50;;;;;;;37.80;14.98;;;;;;;-5.61;63.05;99290.88;5072140;28;20086;-57
2021/12/30 08:35:17;;;;;;;38.17;16.25;;;;;;;-5.76;63.70;99295.63;5070836;28;20401;-54
2021/12/30 08:37:43;;;;;;;37.20;14.88;;;;;;;-5.89;63.44;99302.81;5069253;28;20083;-58
2021/12/30 08:40:12;;;;;;;36.60;15.48;;;;;;;-6.08;63.89;99298.47;5069448;28;20042;-60
2021/12/30 08:42:38;;;;;;;32.72;14.93;;;;;;;-5.81;64.58;99305.53;5069132;28;20041;-58
2021/12/30 08:45:05;;;;;;;38.15;14.68;;;;;;;-5.64;63.60;99301.47;5070238;28;20135;-58
2021/12/30 08:47:31;;;;;;;33.10;14.85;;;;;;;-5.44;64.26;99294.50;5078889;28;20066;-58
2021/12/30 08:49:59;;;;;;;37.05;14.82;;;;;;;-5.49;62.89;99289.78;5074252;28;20518;-57
2021/12/30 08:52:28;;;;;;;41.97;15.13;;;;;;;-5.38;63.54;99286.22;5081324;28;20080;-57
2021/12/30 08:55:04;;;;;;;31.50;13.98;;;;;;;-5.36;61.40;99279.97;5075861;28;20158;-58
2021/12/30 08:57:30;;;;;;;40.35;13.68;;;;;;;-5.51;62.75;99283.94;5068285;28;20056;-59
2021/12/30 08:59:57;;;;;;;41.58;15.77;;;;;;;-5.61;63.43;99285.72;5069230;28;20127;-60
2021/12/30 09:02:23;;;;;;;31.17;14.40;;;;;;;-5.53;63.91;99278.91;5070076;28;20044;-60
2021/12/30 09:04:49;;;;;;;45.03;15.38;;;;;;;-5.32;64.25;99283.09;5058541;28;20577;-59
2021/12/30 09:07:18;;;;;;;33.78;14.85;;;;;;;-5.22;62.43;99285.66;5079617;28;20071;-59
2021/12/30 09:09:45;;;;;;;35.25;15.77;;;;;;;-5.17;62.65;99283.50;5081880;28;20688;-57
2021/12/30 09:12:11;;;;;;;36.60;14.82;;;;;;;-5.10;63.04;99290.53;5085485;28;20455;-59
2021/12/30 09:14:37;;;;;;;40.05;14.70;;;;;;;-4.98;63.50;99298.13;5079281;28;20055;-60
2021/12/30 09:17:05;;;;;;;41.13;15.10;;;;;;;-5.02;63.63;99295.00;5069188;28;20664;-60
2021/12/30 09:19:31;;;;;;;39.70;15.07;;;;;;;-4.94;64.22;99302.06;5085996;28;20073;-59
2021/12/30 09:21:57;;;;;;;39.47;14.65;;;;;;;-4.87;62.63;99297.97;5086819;28;20047;-59
2021/12/30 09:24:23;;;;;;;39.67;15.88;;;;;;;-5.18;62.37;99289.59;5066831;28;20044;-61
2021/12/30 09:26:51;;;;;;;42.38;17.25;;;;;;;-5.05;65.19;99292.72;5051317;28;20047;-59
2021/12/30 09:29:16;;;;;;;39.40;15.15;;;;;;;-4.91;64.72;99296.59;5069532;28;20045;-61
2021/12/30 09:31:50;;;;;;;41.25;15.40;;;;;;;-4.90;61.95;99286.13;5033874;28;20056;-55
2021/12/30 09:34:16;;;;;;;35.97;15.93;;;;;;;-5.02;61.31;99289.84;5069252;28;20052;-59
2021/12/30 09:36:43;;;;;;;37.53;16.42;;;;;;;-4.95;62.30;99283.16;5070316;28;20072;-59
2021/12/30 09:39:11;;;;;;;31.88;15.55;;;;;;;-4.80;62.30;99286.91;5075365;28;20040;-58
2021/12/30 09:41:39;;;;;;;34.25;14.65;;;;;;;-4.75;61.17;99280.50;5072418;28;20652;-60
2021/12/30 09:44:06;;;;;;;31.02;15.23;;;;;;;-4.78;60.36;99278.22;5084515;28;20040;-59
2021/12/30 09:46:33;;;;;;;34.33;14.98;;;;;;;-4.74;60.80;99275.19;5076413;28;20028;-60
2021/12/30 09:48:59;;;;;;;40.40;15.40;;;;;;;-4.74;60.10;99276.97;5068645;28;20072;-62
2021/12/30 09:51:25;;;;;;;35.22;15.52;;;;;;;-4.97;59.89;99269.56;5075376;28;20094;-62
2021/12/30 09:53:51;;;;;;;42.03;16.35;;;;;;;-4.99;61.34;99274.06;5089284;28;20414;-60
2021/12/30 09:56:19;;;;;;;38.90;15.93;;;;;;;-5.05;61.35;99259.91;5086805;28;20523;-61
2021/12/30 09:58:45;;;;;;;38.97;16.27;;;;;;;-4.92;61.28;99254.44;5082457;28;20481;-60
2021/12/30 10:01:11;;;;;;;41.63;16.33;;;;;;;-4.80;60.92;99263.63;5071407;28;20048;-60
2021/12/30 10:03:37;;;;;;;41.50;15.40;;;;;;;-4.68;60.88;99256.50;5078928;28;20097;-57
2021/12/30 10:06:09;;;;;;;37.20;16.10;;;;;;;-4.66;60.47;99256.38;5078031;28;20033;-57
2021/12/30 10:08:40;;;;;;;42.45;16.10;;;;;;;-4.73;60.56;99253.56;5071827;28;20450;-58
2021/12/30 10:11:14;;;;;;;38.72;16.58;;;;;;;-4.67;59.51;99247.81;5079787;28;20147;-59
2021/12/30 10:14:00;;;;;;;39.28;14.80;;;;;;;-4.61;59.54;99251.59;5091897;28;20051;-57
2021/12/30 10:16:26;;;;;;;42.60;15.82;;;;;;;-4.49;59.71;99249.63;5073554;28;20106;-59
2021/12/30 10:19:00;;;;;;;39.38;15.98;;;;;;;-4.52;59.40;99247.34;5087424;28;20040;-59
2021/12/30 10:21:32;;;;;;;36.03;14.98;;;;;;;-4.51;59.31;99246.38;5074288;28;20098;-56
2021/12/30 10:24:00;;;;;;;34.78;15.23;;;;;;;-4.77;59.58;99239.25;5086767;28;20072;-58
2021/12/30 10:26:26;;;;;;;34.88;15.02;;;;;;;-4.83;60.46;99243.22;5073954;28;20467;-59
2021/12/30 10:29:03;;;;;;;33.45;14.52;;;;;;;-4.81;59.13;99225.81;5070766;28;20044;-58
2021/12/30 10:31:30;;;;;;;40.28;15.73;;;;;;;-4.93;59.75;99220.97;5052236;28;20560;-56
2021/12/30 10:34:16;;;;;;;40.83;15.98;;;;;;;-5.07;61.12;99214.47;5070244;28;20079;-58
2021/12/30 10:36:48;;;;;;;32.78;14.10;;;;;;;-4.96;61.08;99208.34;5069950;28;20045;-59
2021/12/30 10:39:30;;;;;;;39.42;16.65;;;;;;;-4.93;61.41;99211.44;5070705;28;20040;-60
2021/12/30 10:42:05;;;;;;;37.47;14.70;;;;;;;-4.84;61.45;99210.59;5085022;28;20452;-59
2021/12/30 10:44:50;;;;;;;45.05;17.15;;;;;;;-4.68;61.46;99209.94;5089534;28;20564;-60
2021/12/30 10:47:17;;;;;;;48.85;17.70;;;;;;;-4.76;62.82;99204.69;5086379;28;20067;-59
2021/12/30 10:49:43;;;;;;;40.58;17.05;;;;;;;-4.70;61.72;99203.31;5087920;28;20040;-60
2021/12/30 10:52:12;;;;;;;36.38;15.95;;;;;;;-4.67;61.55;99197.84;5069366;28;20050;-59
2021/12/30 10:54:39;;;;;;;40.42;16.48;;;;;;;-4.69;62.95;99208.34;5068947;28;20045;-59
2021/12/30 10:57:09;;;;;;;43.10;17.52;;;;;;;-4.61;62.34;99205.84;5077510;28;20059;-60
2021/12/30 10:59:43;;;;;;;41.17;16.27;;;;;;;-4.53;61.52;99207.69;5087408;28;20042;-61
2021/12/30 11:02:18;;;;;;;35.90;16.15;;;;;;;-4.48;61.70;99196.91;5052671;28;20085;-62
2021/12/30 11:04:49;;;;;;;37.22;16.95;;;;;;;-4.43;61.73;99212.84;5086482;28;20552;-62
2021/12/30 11:07:17;;;;;;;38.80;16.58;;;;;;;-4.40;61.54;99208.16;5073947;28;20036;-61
2021/12/30 11:09:52;;;;;;;40.33;17.05;;;;;;;-4.37;60.75;99213.06;5088516;28;20125;-60
2021/12/30 11:12:24;;;;;;;38.70;16.50;;;;;;;-4.46;60.99;99216.50;5073719;28;20509;-57
2021/12/30 11:14:50;;;;;;;44.88;17.58;;;;;;;-4.40;61.42;99204.78;5086307;28;20040;-59